Date,TemperatureHighF,TemperatureAvgF,TemperatureLowF,DewpointHighF,DewpointAvgF,DewpointLowF,HumidityHigh,HumidityAvg,HumidityLow,PressureMaxIn,PressureMinIn,WindSpeedMaxMPH,WindSpeedAvgMPH,GustSpeedMaxMPH,PrecipitationSumIn
2013-11-1,53.2,48.5,45.3,51.0,44.3,42.0,94,85,74,29.71,29.32,17,9,0,0.02
2013-11-2,47.1,44.7,42.5,44.0,42.0,40.0,93,90,85,30.09,29.71,11,4,0,0.05
2013-11-3,50.5,42.7,35.4,42.0,38.6,34.0,97,86,65,30.34,30.09,8,2,0,0.00
2013-11-4,55.0,46.4,37.8,43.0,39.4,36.0,91,77,60,30.36,30.23,17,8,0,0.00
2013-11-5,56.8,52.3,48.2,50.0,45.8,42.0,93,79,69,30.33,30.09,15,8,0,0.02
2013-11-6,57.5,52.1,42.1,53.0,47.9,40.0,94,86,63,30.08,29.82,29,13,0,0.15
2013-11-7,47.0,40.1,32.0,39.0,33.0,29.0,90,77,51,30.24,30.07,14,6,0,0.02
2013-11-8,47.4,38.4,29.7,35.0,31.8,28.0,93,78,55,30.35,30.14,11,5,0,0.00
2013-11-9,60.4,50.6,42.6,44.0,37.6,32.0,69,62,50,30.13,29.91,29,14,0,0.01
2013-11-10,47.9,41.1,33.7,39.0,31.4,27.0,84,69,57,30.31,30.02,27,7,0,0.00
2013-11-11,49.3,40.2,30.1,40.0,33.7,24.0,94,79,62,30.37,30.07,24,9,0,0.03
2013-11-12,33.6,28.7,24.2,27.0,22.8,19.0,86,79,68,30.63,30.38,10,5,0,0.00
2013-11-13,37.5,28.5,19.7,23.0,20.1,17.0,89,72,49,30.62,30.30,19,9,0,0.00
2013-11-14,51.9,39.6,29.4,27.0,24.4,22.0,77,57,33,30.29,30.05,22,13,0,0.00
2013-11-15,51.9,44.6,39.1,35.0,30.0,26.0,77,57,47,30.07,30.00,17,9,0,0.00
2013-11-16,59.9,50.4,40.3,57.0,47.3,34.0,94,89,78,30.03,29.72,26,12,0,0.03
2013-11-17,63.9,58.8,46.8,61.0,55.8,41.0,95,90,78,29.73,29.28,27,17,0,0.19
2013-11-18,46.6,41.4,35.0,40.0,34.0,29.0,86,75,61,30.19,29.68,24,10,0,0.02
2013-11-19,42.7,34.5,29.6,31.0,28.1,26.0,88,78,60,30.36,30.19,7,2,0,0.00
2013-11-20,44.3,36.3,27.8,37.0,30.2,25.0,89,79,65,30.36,30.17,15,4,0,0.01
2013-11-21,48.3,45.9,43.4,47.0,42.5,37.0,97,88,72,30.25,30.15,14,7,0,0.06
2013-11-22,48.4,41.3,30.6,48.0,39.3,28.0,98,92,84,30.43,30.14,16,5,0,0.04
2013-11-23,30.7,25.4,20.1,28.0,20.7,16.0,90,82,70,30.63,30.38,22,8,16,0.00
2013-11-24,26.2,20.5,14.6,16.9,13.8,10.7,89,76,57,30.71,30.50,13,4,14,0.00
2013-11-25,32.6,26.9,18.1,27.0,18.7,12.5,92,72,58,30.50,30.16,20,10,21,0.00
2013-11-26,35.4,31.3,27.7,29.3,27.0,24.8,91,84,76,30.17,29.98,14,6,17,0.06
2013-11-27,28.1,25.0,21.5,25.2,20.5,14.5,91,83,74,30.28,30.01,17,7,18,0.00
2013-11-28,34.7,27.1,22.0,22.0,18.0,14.8,80,69,52,30.46,30.23,23,7,21,0.00
2013-11-29,37.3,25.0,16.9,24.0,19.3,14.7,93,80,56,30.65,30.47,7,1,4,0.05
2013-11-30,49.3,37.3,29.0,33.0,27.7,23.0,82,69,50,30.50,30.11,19,8,0,0.09